首页
METAR-TAF:

METAR-TAF

机场 :

Hohn, 德国

纬度: 54-19N, 经度: 009-32E, 海拔: 12米

当前天气观测

该预报发布于1小时和14分钟前的09:20 UTC
风速3节,风向南转南东
温度 6°C
湿度 93%
气压 1008 hPa
能見度: 8000
少量云层高于800英尺
散云层高于22000英尺

METAR: ETNH 220920Z 15003KT 8000 FEW008 SCT220 06/05 Q1008 BLU+BLU TEMPO WHT

时间: 11:34 (10:34 UTC)

预报

该预报发布于5小时和9分钟前的05:25 UTC
预报有效从22日的 06点(UTC)到 22日的 18点(UTC)
风速5节,风向南转南东
能見度: 9000
散云层高于1000英尺
多云层高于7000英尺
短暂存在
从 22日的 06点(UTC)到 22日的 09点(UTC)
风速3节,风向东南
能見度: 3000
散云层高于500英尺
轻雾
短暂存在
从 22日的 09点(UTC)到 22日的 18点(UTC)
风速7节,风向东转东南
能見度: 7000
散云层高于7000英尺
多云层高于20000英尺

TAF: ETNH 220525Z 2206/2218 15005KT 9000 NSW SCT010 BKN070 TEMPO 2206/2209 14003KT 3000 BR SCT005 BKN10 TEMPO 2209/2218 12007KT 7000 NSW SCT070 BKN200 BY ETGL

超过4000个机场的气象观测和天气预报(METAR&TAF报告)。

可查询的气象台以黄色和红色小点在地图上表示。

将鼠标移到小点上方,可查看气象台名称。

然后点击查看天气观测和预报。

如需切换地图:点击带黑十字的绿色按钮放大地图;点击带横线的绿色按钮缩小地图;或者点击绿色箭头查看邻近地区的地图。


METAR-TAF: